Time;durP1;ratioP1;P1;durP2;ratioP2;P2;SDS_P1;SDS_P2;PMS_P1;PMS_P2;Temp;Humidity;BMP_temperature;BMP_pressure;BME280_temperature;BME280_humidity;BME280_pressure;Samples;Min_cycle;Max_cycle;Signal;HPM_P1;HPM_P2
2022/12/29 00:00:04;;;;;;;4.03;2.22;;;;;;;9.16;100.00;97940.41;4207312;28;20232;-50
2022/12/29 00:02:06;;;;;;;1.88;1.77;;;;;;;9.16;100.00;97939.59;4208786;28;20206;-50
2022/12/29 00:04:11;;;;;;;2.70;2.50;;;;;;;9.17;100.00;97938.53;4189065;28;20291;-49
2022/12/29 00:06:16;;;;;;;2.03;1.83;;;;;;;9.15;100.00;97948.88;4200265;28;20294;-50
2022/12/29 00:08:17;;;;;;;2.08;1.90;;;;;;;9.15;100.00;97937.97;4217040;27;20268;-49
2022/12/29 00:10:19;;;;;;;2.85;1.85;;;;;;;9.09;100.00;97934.34;4218086;27;20668;-50
2022/12/29 00:12:21;;;;;;;2.47;2.28;;;;;;;9.11;100.00;97939.53;4199850;28;20207;-50
2022/12/29 00:16:44;;;;;;;3.00;2.15;;;;;;;9.11;100.00;97937.66;4217275;27;20264;-49
2022/12/29 00:18:46;;;;;;;1.95;1.75;;;;;;;9.10;100.00;97930.53;4201339;28;20218;-50
2022/12/29 00:35:10;;;;;;;2.40;1.60;;;;;;;9.27;100.00;97922.25;4215943;27;20203;-49
2022/12/29 00:37:12;;;;;;;2.90;2.65;;;;;;;9.28;100.00;97918.47;4199646;28;20281;-49
2022/12/29 00:44:07;;;;;;;2.45;1.52;;;;;;;9.35;100.00;97914.44;4217537;27;20266;-49
2022/12/29 00:46:08;;;;;;;2.50;2.30;;;;;;;9.34;100.00;97911.97;4201620;28;20210;-50
2022/12/29 00:49:30;;;;;;;1.50;1.40;;;;;;;9.32;100.00;97900.47;4200717;28;20649;-49
2022/12/29 00:50:41;;;;;;;1.73;1.63;;;;;;;9.36;100.00;97883.31;4217286;27;20265;-49
2022/12/29 00:52:43;;;;;;;1.48;1.35;;;;;;;9.44;100.00;97890.22;4188853;28;20215;-49
2022/12/29 00:54:45;;;;;;;2.13;1.58;;;;;;;9.45;100.00;97889.13;4205413;28;20241;-50
2022/12/29 00:56:51;;;;;;;6.28;2.15;;;;;;;9.42;100.00;97879.56;4198158;28;20274;-49
2022/12/29 00:58:53;;;;;;;2.30;2.10;;;;;;;9.42;100.00;97889.66;4198721;28;20219;-49
2022/12/29 01:01:06;;;;;;;1.95;1.45;;;;;;;9.46;100.00;97885.31;4198608;28;20203;-49
2022/12/29 01:03:07;;;;;;;2.78;1.63;;;;;;;9.50;100.00;97886.47;4215786;28;20302;-47
2022/12/29 01:05:09;;;;;;;1.17;1.13;;;;;;;9.56;100.00;97883.50;4197696;28;20218;-50
2022/12/29 01:07:11;;;;;;;3.50;2.00;;;;;;;9.57;100.00;97876.16;4206669;28;20240;-48
2022/12/29 01:11:34;;;;;;;1.58;1.30;;;;;;;9.70;100.00;97875.72;4218516;28;20698;-50
2022/12/29 01:13:38;;;;;;;3.08;2.78;;;;;;;9.71;100.00;97883.66;4188383;28;20238;-47
2022/12/29 01:15:39;;;;;;;1.30;1.20;;;;;;;9.78;100.00;97872.50;4199366;28;20249;-47
2022/12/29 01:17:41;;;;;;;1.70;1.33;;;;;;;9.78;100.00;97880.72;4201174;28;20206;-48
2022/12/29 01:19:43;;;;;;;1.35;1.30;;;;;;;9.79;100.00;97879.63;4201686;28;20226;-49
2022/12/29 01:21:45;;;;;;;3.40;2.05;;;;;;;9.83;100.00;97892.50;4201407;28;20234;-47
2022/12/29 01:23:47;;;;;;;1.60;1.20;;;;;;;9.87;100.00;97868.22;4203822;28;20253;-48
2022/12/29 01:25:49;;;;;;;1.77;1.33;;;;;;;9.86;100.00;97864.66;4186688;28;20838;-47
2022/12/29 01:27:50;;;;;;;1.33;1.13;;;;;;;9.88;100.00;97872.59;4201294;28;20195;-48
2022/12/29 01:29:52;;;;;;;1.20;1.20;;;;;;;9.88;100.00;97883.53;4197661;28;20324;-48
2022/12/29 01:31:54;;;;;;;1.27;1.05;;;;;;;9.88;100.00;97878.06;4216669;27;20288;-47
2022/12/29 01:33:56;;;;;;;1.50;1.40;;;;;;;9.84;100.00;97880.50;4217137;27;20204;-48
2022/12/29 01:36:05;;;;;;;0.90;0.90;;;;;;;9.80;100.00;97875.78;4198213;28;20633;-48
2022/12/29 01:38:07;;;;;;;3.47;1.42;;;;;;;9.80;100.00;97867.59;4205351;28;20199;-48
2022/12/29 01:40:10;;;;;;;1.80;1.20;;;;;;;9.81;100.00;97874.75;4200450;28;20258;-48
2022/12/29 01:42:17;;;;;;;3.05;1.10;;;;;;;9.82;100.00;97884.56;4200439;28;20203;-48
2022/12/29 01:44:43;;;;;;;1.38;1.10;;;;;;;9.82;100.00;97881.84;4199466;28;20228;-47
2022/12/29 01:46:47;;;;;;;1.17;1.08;;;;;;;9.84;100.00;97877.78;4201617;28;20206;-48
2022/12/29 01:48:53;;;;;;;3.97;1.10;;;;;;;9.81;100.00;97881.00;4198615;28;20265;-48
2022/12/29 01:50:55;;;;;;;1.10;1.10;;;;;;;9.80;100.00;97875.78;4197715;28;20953;-48
2022/12/29 01:53:03;;;;;;;1.33;1.10;;;;;;;9.86;100.00;97891.16;4206124;28;20211;-47
2022/12/29 01:55:06;;;;;;;1.27;1.17;;;;;;;9.77;100.00;97887.25;4215443;28;20209;-48
2022/12/29 01:57:17;;;;;;;1.42;1.33;;;;;;;9.80;100.00;97870.31;4197818;28;20243;-48
2022/12/29 01:59:22;;;;;;;1.02;1.02;;;;;;;9.79;100.00;97875.00;4199660;28;20254;-48
2022/12/29 02:01:24;;;;;;;1.67;1.45;;;;;;;9.90;100.00;97878.63;4190491;28;20768;-48
2022/12/29 02:03:28;;;;;;;1.75;1.65;;;;;;;9.85;100.00;97863.03;4200159;28;20198;-48
2022/12/29 02:05:43;;;;;;;1.05;1.05;;;;;;;9.92;100.00;97858.16;4203800;28;20778;-48
2022/12/29 02:07:46;;;;;;;1.85;1.55;;;;;;;9.94;100.00;97857.91;4200923;28;20223;-48
2022/12/29 02:09:52;;;;;;;2.00;1.67;;;;;;;9.92;100.00;97846.38;4218268;28;20230;-48
2022/12/29 02:11:54;;;;;;;1.02;1.02;;;;;;;9.99;100.00;97855.19;4201415;28;20230;-48
2022/12/29 02:13:56;;;;;;;1.23;1.17;;;;;;;9.95;100.00;97854.88;4196992;28;20303;-48
2022/12/29 02:16:35;;;;;;;1.95;1.83;;;;;;;9.95;100.00;97863.09;4216927;28;20340;-48
2022/12/29 02:19:00;;;;;;;2.58;2.13;;;;;;;10.04;100.00;97844.31;4200564;28;20309;-47
2022/12/29 02:21:10;;;;;;;1.60;1.25;;;;;;;10.04;100.00;97849.78;4200661;28;20210;-47
2022/12/29 02:23:53;;;;;;;1.90;1.70;;;;;;;10.04;100.00;97839.69;4202504;28;20217;-48
2022/12/29 02:26:04;;;;;;;1.90;1.35;;;;;;;10.11;100.00;97840.28;4203730;28;20672;-47
2022/12/29 02:28:20;;;;;;;1.40;1.30;;;;;;;10.13;100.00;97848.19;4185398;28;20237;-47
2022/12/29 02:30:46;;;;;;;1.00;1.00;;;;;;;10.17;100.00;97839.22;4204606;28;20206;-48
2022/12/29 02:33:11;;;;;;;1.80;1.10;;;;;;;10.20;100.00;97837.84;4202058;28;20206;-48
2022/12/29 02:35:52;;;;;;;1.10;1.10;;;;;;;10.23;100.00;97842.81;4216071;28;20206;-47
2022/12/29 02:38:25;;;;;;;2.80;1.50;;;;;;;10.21;100.00;97839.53;4203400;28;20213;-48
2022/12/29 02:40:37;;;;;;;0.88;0.80;;;;;;;10.18;100.00;97845.50;4204624;28;20234;-48
2022/12/29 02:42:51;;;;;;;1.50;1.15;;;;;;;10.20;100.00;97832.38;4199938;28;20302;-48
2022/12/29 02:44:58;;;;;;;1.58;1.40;;;;;;;10.18;100.00;97812.69;4204406;28;20313;-47
2022/12/29 02:47:03;;;;;;;4.60;1.40;;;;;;;10.16;100.00;97820.34;4218307;28;20264;-48
2022/12/29 02:49:26;;;;;;;1.23;1.13;;;;;;;10.08;100.00;97818.13;4202628;28;20268;-47
2022/12/29 02:51:43;;;;;;;1.40;1.20;;;;;;;10.13;100.00;97823.59;4201502;28;20234;-48
2022/12/29 02:56:05;;;;;;;1.73;1.25;;;;;;;10.18;100.00;97818.16;4214287;28;20215;-47
2022/12/29 02:58:19;;;;;;;1.95;1.70;;;;;;;10.17;100.00;97816.53;4198534;28;20566;-48
2022/12/29 03:00:21;;;;;;;4.05;3.58;;;;;;;10.15;100.00;97818.72;4198392;28;20302;-48
2022/12/29 03:02:30;;;;;;;4.32;1.50;;;;;;;10.14;100.00;97811.59;4185915;28;20739;-47
2022/12/29 03:05:10;;;;;;;3.17;2.33;;;;;;;10.10;100.00;97805.00;4215905;28;20661;-49
2022/12/29 03:07:53;;;;;;;2.40;1.50;;;;;;;10.17;100.00;97800.13;4163988;28;20211;-47
2022/12/29 03:10:15;;;;;;;1.60;1.50;;;;;;;10.22;100.00;97791.97;4126363;28;20237;-47
2022/12/29 03:17:53;;;;;;;1.20;1.10;;;;;;;10.05;100.00;97785.84;4217629;28;20194;-48
2022/12/29 03:20:01;;;;;;;1.10;1.10;;;;;;;10.01;100.00;97784.69;4201997;28;20284;-49
2022/12/29 03:22:32;;;;;;;1.25;1.15;;;;;;;10.05;100.00;97780.38;4216744;27;20214;-48
2022/12/29 03:24:38;;;;;;;1.27;0.90;;;;;;;10.08;100.00;97797.06;4189687;28;20671;-48
2022/12/29 03:26:41;;;;;;;2.00;1.65;;;;;;;10.06;100.00;97776.53;4201609;28;20704;-49
2022/12/29 03:28:48;;;;;;;1.40;1.30;;;;;;;10.06;100.00;97768.34;4189560;28;20322;-48
2022/12/29 03:30:50;;;;;;;1.52;1.42;;;;;;;10.04;100.00;97773.25;4218604;27;20209;-48
2022/12/29 03:32:54;;;;;;;4.65;1.42;;;;;;;10.04;100.00;97762.31;4204488;28;20846;-49
2022/12/29 03:34:57;;;;;;;1.88;1.70;;;;;;;10.04;100.00;97779.56;4204323;28;20258;-48
2022/12/29 03:37:02;;;;;;;1.92;1.23;;;;;;;10.06;100.00;97782.00;4217951;27;20213;-49
2022/12/29 03:39:11;;;;;;;1.40;1.30;;;;;;;10.04;100.00;97763.16;4206980;28;20271;-48
2022/12/29 03:41:18;;;;;;;1.40;1.23;;;;;;;10.09;100.00;97776.03;4219178;27;20205;-48
2022/12/29 03:43:20;;;;;;;1.20;1.10;;;;;;;10.09;100.00;97770.56;4198595;28;20661;-48
2022/12/29 03:45:22;;;;;;;1.15;1.10;;;;;;;10.07;100.00;97781.75;4206775;28;20565;-49
2022/12/29 03:47:25;;;;;;;1.42;1.27;;;;;;;10.11;100.00;97779.31;4199974;28;20733;-48
2022/12/29 03:49:26;;;;;;;1.27;1.17;;;;;;;10.11;100.00;97787.50;4187398;28;20283;-49
2022/12/29 03:51:28;;;;;;;2.15;1.20;;;;;;;10.14;100.00;97785.06;4204187;28;20291;-48
2022/12/29 03:53:30;;;;;;;0.95;0.95;;;;;;;10.14;100.00;97767.88;4221603;27;20645;-48
2022/12/29 03:55:31;;;;;;;1.45;1.08;;;;;;;10.16;100.00;97782.09;4201652;28;20203;-48
2022/12/29 03:57:34;;;;;;;1.20;0.90;;;;;;;10.11;100.00;97785.63;4202628;28;20710;-49
2022/12/29 03:59:35;;;;;;;0.90;0.90;;;;;;;10.15;100.00;97775.78;4202406;28;20253;-47
2022/12/29 04:01:38;;;;;;;1.30;1.20;;;;;;;10.12;100.00;97778.22;4202398;28;20202;-49
2022/12/29 04:03:39;;;;;;;1.05;0.98;;;;;;;10.16;100.00;97776.63;4200448;28;20676;-49
2022/12/29 04:05:41;;;;;;;1.95;1.33;;;;;;;10.12;100.00;97778.22;4217546;27;20251;-48
2022/12/29 04:07:43;;;;;;;1.73;1.60;;;;;;;10.14;100.00;97778.81;4200129;28;20207;-47
2022/12/29 04:09:45;;;;;;;1.17;1.08;;;;;;;10.14;100.00;97774.13;4217237;28;20226;-47
2022/12/29 04:11:47;;;;;;;5.47;1.23;;;;;;;10.16;100.00;97771.94;4203386;28;20206;-49
2022/12/29 04:13:49;;;;;;;1.40;1.08;;;;;;;10.21;100.00;97779.38;4202271;28;20207;-48
2022/12/29 04:15:50;;;;;;;1.38;1.27;;;;;;;10.21;100.00;97784.84;4198354;28;20203;-48
2022/12/29 04:17:52;;;;;;;1.17;1.15;;;;;;;10.21;100.00;97782.91;4217359;28;20210;-48
2022/12/29 04:20:59;;;;;;;1.30;1.20;;;;;;;10.18;100.00;97763.50;4220376;27;20210;-48
2022/12/29 04:22:15;;;;;;;1.23;1.23;;;;;;;10.23;100.00;97788.13;4202242;27;20206;-48
2022/12/29 04:24:19;;;;;;;1.02;1.02;;;;;;;10.23;100.00;97779.94;4214889;27;20222;-47
2022/12/29 04:26:20;;;;;;;1.35;1.27;;;;;;;10.24;100.00;97778.84;4217941;28;20201;-47
2022/12/29 04:28:22;;;;;;;1.95;1.00;;;;;;;10.28;100.00;97769.84;4197016;28;20306;-48
2022/12/29 04:30:25;;;;;;;1.40;1.20;;;;;;;10.32;100.00;97770.13;4199418;28;20265;-48
2022/12/29 04:32:26;;;;;;;1.35;1.25;;;;;;;10.31;100.00;97773.94;4198937;28;20310;-49
2022/12/29 04:34:28;;;;;;;1.50;1.40;;;;;;;10.39;100.00;97765.22;4184811;28;20235;-48
2022/12/29 04:36:30;;;;;;;1.27;1.00;;;;;;;10.39;100.00;97774.25;4218409;27;20270;-49
2022/12/29 04:38:32;;;;;;;1.05;1.05;;;;;;;10.40;100.00;97761.41;4202987;28;20207;-47
2022/12/29 04:40:34;;;;;;;1.45;1.35;;;;;;;10.39;100.00;97770.69;4202186;28;20284;-48
2022/12/29 04:42:36;;;;;;;1.73;1.58;;;;;;;10.39;100.00;97754.28;4212625;28;20202;-48
2022/12/29 04:44:38;;;;;;;0.95;0.85;;;;;;;10.40;100.00;97764.97;4191036;28;20211;-48
2022/12/29 04:46:45;;;;;;;2.42;1.40;;;;;;;10.42;100.00;97760.03;4207980;28;20662;-47
2022/12/29 04:48:47;;;;;;;2.75;2.20;;;;;;;10.45;100.00;97769.63;4198673;28;20230;-47
2022/12/29 04:50:49;;;;;;;1.88;1.55;;;;;;;10.54;100.00;97762.56;4217071;27;20201;-48
2022/12/29 04:52:51;;;;;;;2.40;1.98;;;;;;;10.48;100.00;97766.38;4218554;27;20205;-48
2022/12/29 04:54:53;;;;;;;1.55;1.45;;;;;;;10.49;100.00;97770.75;4202181;28;20257;-48
2022/12/29 04:56:55;;;;;;;1.63;1.52;;;;;;;10.55;100.00;97786.91;4199766;28;20592;-48
2022/12/29 04:58:56;;;;;;;3.30;2.10;;;;;;;10.55;100.00;97769.69;4202700;28;21026;-48
2022/12/29 05:00:58;;;;;;;1.90;1.67;;;;;;;10.58;100.00;97769.97;4200960;28;20211;-48
2022/12/29 05:03:03;;;;;;;1.20;1.10;;;;;;;10.65;100.00;97764.22;4203344;28;20320;-48
2022/12/29 05:05:06;;;;;;;1.88;1.63;;;;;;;10.66;100.00;97785.03;4204143;28;20230;-47
2022/12/29 05:07:08;;;;;;;1.20;1.08;;;;;;;10.63;100.00;97777.38;4216111;28;20207;-49
2022/12/29 05:09:10;;;;;;;2.10;1.10;;;;;;;10.68;100.00;97780.13;4215952;27;20261;-48
2022/12/29 05:11:11;;;;;;;1.30;1.20;;;;;;;10.62;100.00;97781.19;4218599;27;20207;-48
2022/12/29 05:13:13;;;;;;;1.15;1.08;;;;;;;10.66;100.00;97779.56;4199284;28;20209;-47
2022/12/29 05:15:15;;;;;;;3.03;1.20;;;;;;;10.73;100.00;97802.00;4187841;28;20207;-47
2022/12/29 05:17:17;;;;;;;1.48;1.30;;;;;;;10.75;100.00;97780.69;4219434;27;20305;-47
2022/12/29 05:19:19;;;;;;;6.05;1.17;;;;;;;10.73;100.00;97786.44;4215194;27;20326;-47
2022/12/29 05:21:20;;;;;;;0.82;0.75;;;;;;;10.74;100.00;97790.00;4188634;28;20772;-48
2022/12/29 05:23:22;;;;;;;1.20;1.20;;;;;;;10.76;100.00;97776.88;4200189;28;20318;-48
2022/12/29 05:25:24;;;;;;;0.85;0.82;;;;;;;10.77;100.00;97792.19;4201408;28;20215;-49
2022/12/29 05:27:26;;;;;;;1.50;1.30;;;;;;;10.72;100.00;97789.44;4204137;28;20234;-48
2022/12/29 05:29:27;;;;;;;2.58;1.20;;;;;;;10.73;100.00;97783.69;4221556;27;20230;-47
2022/12/29 05:31:39;;;;;;;1.45;1.00;;;;;;;10.77;100.00;97779.34;4198171;28;20254;-48
2022/12/29 05:33:43;;;;;;;1.10;1.00;;;;;;;10.77;100.00;97785.63;4187480;28;20208;-48
2022/12/29 05:35:45;;;;;;;0.95;0.95;;;;;;;10.71;100.00;97801.47;4180523;28;20265;-48
2022/12/29 05:37:47;;;;;;;1.10;1.10;;;;;;;10.65;100.00;97797.06;4187898;28;20238;-49
2022/12/29 05:39:49;;;;;;;2.45;1.17;;;;;;;10.59;100.00;97798.13;4186027;28;20220;-49
2022/12/29 05:41:50;;;;;;;1.35;1.23;;;;;;;10.59;100.00;97777.09;4196156;28;20219;-50
2022/12/29 05:43:52;;;;;;;1.15;1.08;;;;;;;10.54;100.00;97784.47;4198031;28;20211;-50
2022/12/29 05:45:55;;;;;;;2.78;1.50;;;;;;;10.52;100.00;97786.63;4184880;28;20239;-49
2022/12/29 05:47:56;;;;;;;1.08;1.08;;;;;;;10.59;100.00;97782.56;4199054;28;20214;-49
2022/12/29 05:49:58;;;;;;;1.65;1.30;;;;;;;10.60;100.00;97780.63;4215911;28;20227;-50
2022/12/29 05:52:00;;;;;;;1.17;1.15;;;;;;;10.54;100.00;97774.31;4202811;28;20699;-50
2022/12/29 05:54:01;;;;;;;1.98;1.33;;;;;;;10.59;100.00;97770.78;4216147;28;20218;-50
2022/12/29 05:56:03;;;;;;;1.60;1.30;;;;;;;10.63;100.00;97777.38;4205334;28;20211;-49
2022/12/29 05:58:05;;;;;;;1.75;1.65;;;;;;;10.70;100.00;97758.78;4201582;28;20632;-49
2022/12/29 06:00:08;;;;;;;1.58;1.45;;;;;;;10.74;100.00;97757.16;4197395;28;20327;-49
2022/12/29 06:02:10;;;;;;;1.95;1.20;;;;;;;10.88;98.30;97752.81;4198535;28;20297;-48
2022/12/29 06:04:12;;;;;;;1.08;1.08;;;;;;;10.93;97.72;97762.69;4217293;28;20210;-49
2022/12/29 06:06:14;;;;;;;5.78;1.98;;;;;;;10.93;97.43;97750.91;4216763;28;20206;-49
2022/12/29 06:08:16;;;;;;;1.80;1.70;;;;;;;10.96;97.51;97750.34;4199623;28;20286;-49
2022/12/29 06:10:18;;;;;;;1.92;1.83;;;;;;;11.01;96.56;97748.47;4215084;28;20313;-48
2022/12/29 06:12:20;;;;;;;1.55;1.45;;;;;;;11.01;96.77;97736.69;4200491;28;20203;-50
2022/12/29 06:14:21;;;;;;;3.53;2.08;;;;;;;11.11;95.36;97737.50;4199353;28;20227;-49
2022/12/29 06:16:23;;;;;;;1.75;1.65;;;;;;;11.05;95.83;97738.59;4203484;28;20286;-50
2022/12/29 06:18:25;;;;;;;4.20;1.10;;;;;;;11.16;94.79;97734.78;4204571;28;20210;-49
2022/12/29 06:20:27;;;;;;;3.60;1.60;;;;;;;11.17;94.93;97736.41;4200016;28;20284;-50
2022/12/29 06:22:29;;;;;;;1.08;0.93;;;;;;;11.12;95.77;97741.09;4200902;28;20231;-49
2022/12/29 06:24:30;;;;;;;2.05;1.42;;;;;;;11.17;94.70;97739.16;4201434;28;20292;-49
2022/12/29 06:26:32;;;;;;;1.48;1.33;;;;;;;11.18;94.29;97738.06;4214236;28;20210;-49
2022/12/29 06:28:34;;;;;;;1.30;1.10;;;;;;;11.19;94.66;97738.91;4197174;28;20284;-49
2022/12/29 06:30:36;;;;;;;2.20;1.30;;;;;;;11.18;94.56;97727.09;4182836;28;20218;-49
2022/12/29 06:32:38;;;;;;;2.70;1.40;;;;;;;11.29;93.74;97742.47;4202034;28;20337;-50
2022/12/29 06:34:39;;;;;;;1.50;1.40;;;;;;;11.30;93.72;97755.06;4202390;28;20222;-49
2022/12/29 06:36:41;;;;;;;1.08;1.08;;;;;;;11.32;93.11;97750.13;4198861;28;20214;-49
2022/12/29 06:38:43;;;;;;;1.33;0.90;;;;;;;11.28;93.48;97749.03;4199151;28;20222;-49
2022/12/29 06:40:45;;;;;;;1.23;1.13;;;;;;;11.26;94.22;97745.75;4217830;27;20230;-49
2022/12/29 06:42:47;;;;;;;1.50;1.40;;;;;;;11.26;94.28;97739.44;4181849;28;20302;-49
2022/12/29 06:44:49;;;;;;;1.40;1.13;;;;;;;11.25;93.86;97746.81;4189354;28;20629;-49
2022/12/29 06:46:51;;;;;;;3.88;1.20;;;;;;;11.25;94.03;97746.81;4218708;27;20205;-49
2022/12/29 06:48:52;;;;;;;1.95;1.40;;;;;;;11.35;93.23;97754.22;4207025;28;20300;-49
2022/12/29 06:50:54;;;;;;;1.45;1.35;;;;;;;11.30;93.26;97755.06;4189522;28;20676;-49
2022/12/29 06:52:56;;;;;;;1.27;1.17;;;;;;;11.29;93.38;97739.72;4203478;28;20242;-50
2022/12/29 06:54:58;;;;;;;4.53;1.38;;;;;;;11.25;93.89;97744.09;4200148;28;20239;-49
2022/12/29 06:57:00;;;;;;;0.90;0.90;;;;;;;11.31;93.34;97751.22;4202645;28;20222;-49
2022/12/29 06:59:02;;;;;;;2.17;1.80;;;;;;;11.28;93.51;97754.50;4203292;28;20313;-50
2022/12/29 07:01:04;;;;;;;4.53;1.83;;;;;;;11.34;93.25;97769.84;4205984;28;20330;-49
2022/12/29 07:03:05;;;;;;;1.73;1.60;;;;;;;11.36;93.35;97758.59;4212154;28;20211;-49
2022/12/29 07:05:09;;;;;;;1.52;1.42;;;;;;;11.32;92.93;97750.13;4204052;28;20293;-48
2022/12/29 07:07:10;;;;;;;1.58;1.48;;;;;;;11.41;92.16;97755.88;4220052;28;20213;-48
2022/12/29 07:09:12;;;;;;;2.70;1.52;;;;;;;11.38;92.24;97768.19;4221886;27;20313;-49
2022/12/29 07:11:14;;;;;;;1.63;1.52;;;;;;;11.39;92.38;97775.34;4204402;28;20223;-49
2022/12/29 07:13:17;;;;;;;2.25;1.38;;;;;;;11.42;92.67;97783.00;4203132;28;20320;-48
2022/12/29 07:15:19;;;;;;;1.77;1.67;;;;;;;11.31;95.00;97775.06;4220519;27;20825;-50
2022/12/29 07:17:21;;;;;;;1.55;1.45;;;;;;;11.16;96.30;97762.16;4194388;28;20239;-49
2022/12/29 07:19:23;;;;;;;2.38;1.30;;;;;;;11.09;97.39;97778.03;4202351;28;20364;-49
2022/12/29 07:21:25;;;;;;;1.55;1.45;;;;;;;11.14;95.88;97772.56;4187066;28;20262;-49
2022/12/29 07:23:26;;;;;;;1.80;1.45;;;;;;;11.13;96.06;97765.47;4204509;28;20211;-50
2022/12/29 07:25:29;;;;;;;3.42;2.28;;;;;;;11.11;96.16;97770.38;4218888;28;20313;-49
2022/12/29 07:27:31;;;;;;;1.50;1.40;;;;;;;11.15;95.71;97766.00;4202951;28;20242;-50
2022/12/29 07:29:33;;;;;;;2.03;1.77;;;;;;;11.17;96.04;97784.91;4203818;28;20313;-49
2022/12/29 07:31:34;;;;;;;1.50;1.40;;;;;;;11.29;94.06;97783.53;4188523;28;20231;-49
2022/12/29 07:33:36;;;;;;;1.60;1.50;;;;;;;11.25;94.76;97776.94;4199228;28;20718;-49
2022/12/29 07:35:38;;;;;;;2.97;1.70;;;;;;;11.26;94.31;97786.84;4218241;27;20206;-48
2022/12/29 07:37:40;;;;;;;2.92;1.48;;;;;;;11.30;94.33;97782.44;4204657;28;20223;-49
2022/12/29 07:39:41;;;;;;;1.77;1.67;;;;;;;11.28;94.35;97783.81;4217565;27;20253;-49
2022/12/29 07:41:43;;;;;;;1.77;1.67;;;;;;;11.29;94.16;97783.53;4200081;28;20218;-49
2022/12/29 07:43:50;;;;;;;2.50;1.50;;;;;;;11.35;94.02;97796.16;4189240;28;20286;-49
2022/12/29 07:45:51;;;;;;;1.52;1.42;;;;;;;11.27;94.75;97801.34;4186772;28;20294;-49
2022/12/29 07:47:53;;;;;;;1.75;1.40;;;;;;;11.27;95.19;97788.47;4220601;27;20749;-50
2022/12/29 07:49:55;;;;;;;1.75;0.93;;;;;;;11.23;96.15;97806.53;4199520;28;20314;-49
2022/12/29 07:51:57;;;;;;;1.45;1.13;;;;;;;11.18;96.75;97803.78;4183711;28;20235;-49
2022/12/29 07:54:05;;;;;;;1.45;1.35;;;;;;;11.18;96.18;97801.03;4198280;28;20202;-51
2022/12/29 07:56:12;;;;;;;2.20;2.08;;;;;;;11.23;95.65;97798.31;4216928;27;20481;-49
2022/12/29 07:58:14;;;;;;;1.60;1.25;;;;;;;11.23;96.44;97812.00;4204575;28;20745;-49
2022/12/29 08:00:16;;;;;;;1.35;1.27;;;;;;;11.16;99.04;97816.09;4217485;27;20304;-49
2022/12/29 08:02:18;;;;;;;2.13;1.52;;;;;;;11.02;100.00;97825.91;4199068;28;20207;-50
2022/12/29 08:04:19;;;;;;;1.85;1.75;;;;;;;10.97;100.00;97815.78;4216784;27;20242;-50
2022/12/29 08:06:22;;;;;;;1.85;1.63;;;;;;;10.91;100.00;97819.59;4218696;27;20245;-49
2022/12/29 08:08:24;;;;;;;1.60;1.50;;;;;;;10.93;100.00;97805.66;4199074;28;20309;-49
2022/12/29 08:10:26;;;;;;;2.17;1.80;;;;;;;10.91;100.00;97819.59;4188766;28;20644;-49
2022/12/29 08:12:28;;;;;;;1.85;1.25;;;;;;;10.94;100.00;97813.59;4204674;28;20207;-49
2022/12/29 08:14:30;;;;;;;1.98;1.75;;;;;;;11.01;100.00;97805.94;4203642;28;20251;-48
2022/12/29 08:16:32;;;;;;;6.32;3.55;;;;;;;11.03;100.00;97814.72;4218525;27;20256;-49
2022/12/29 08:18:34;;;;;;;1.98;1.45;;;;;;;11.06;100.00;97805.97;4201628;28;20203;-49
2022/12/29 08:20:36;;;;;;;5.38;1.77;;;;;;;11.08;100.00;97809.25;4204028;28;20202;-50
2022/12/29 08:22:37;;;;;;;2.50;1.33;;;;;;;11.10;100.00;97819.94;4205435;28;20676;-49
2022/12/29 08:24:39;;;;;;;2.75;1.90;;;;;;;11.11;99.39;97818.84;4199526;28;20289;-49
2022/12/29 08:26:41;;;;;;;2.45;2.25;;;;;;;11.13;99.15;97814.75;4201049;28;20289;-50
2022/12/29 08:28:43;;;;;;;2.17;1.92;;;;;;;11.12;98.87;97823.22;4203896;28;20322;-50
2022/12/29 08:30:44;;;;;;;1.95;1.50;;;;;;;11.14;99.75;97835.56;4219269;27;20233;-50
2022/12/29 08:32:46;;;;;;;1.48;1.38;;;;;;;11.12;100.00;97826.75;4198220;28;20750;-50
2022/12/29 08:34:48;;;;;;;1.65;1.55;;;;;;;11.09;100.00;97821.84;4188543;28;20586;-49
2022/12/29 08:36:50;;;;;;;3.35;2.03;;;;;;;11.03;100.00;97838.53;4197372;28;20483;-50
2022/12/29 08:38:51;;;;;;;2.35;1.80;;;;;;;10.97;100.00;97851.38;4202966;28;20223;-49
2022/12/29 08:40:53;;;;;;;2.45;1.85;;;;;;;10.94;100.00;97834.66;4200460;28;20227;-49
2022/12/29 08:42:55;;;;;;;2.00;1.90;;;;;;;10.89;100.00;97849.16;4214786;27;20206;-50
2022/12/29 08:45:00;;;;;;;2.08;1.48;;;;;;;10.88;100.00;97854.91;4198706;28;20253;-49
2022/12/29 08:47:02;;;;;;;2.08;1.98;;;;;;;10.85;100.00;97831.63;4197502;28;20686;-49
2022/12/29 08:49:04;;;;;;;1.77;1.63;;;;;;;10.87;100.00;97849.72;4218046;27;20277;-50
2022/12/29 08:51:06;;;;;;;2.13;1.92;;;;;;;10.88;100.00;97842.03;4202168;28;20260;-50
2022/12/29 08:53:07;;;;;;;1.52;1.42;;;;;;;10.87;100.00;97836.03;4204829;28;20656;-49
2022/12/29 08:55:09;;;;;;;2.10;1.77;;;;;;;10.88;100.00;97839.31;4201469;28;20285;-49
2022/12/29 08:57:11;;;;;;;2.10;1.90;;;;;;;10.92;100.00;97843.13;4202694;28;20267;-50
2022/12/29 08:59:13;;;;;;;6.25;1.58;;;;;;;11.00;100.00;97834.44;4202768;28;20237;-49
2022/12/29 09:01:15;;;;;;;2.20;2.00;;;;;;;10.97;100.00;97843.16;4181770;28;20302;-50
2022/12/29 09:03:16;;;;;;;2.33;1.92;;;;;;;10.96;100.00;97840.69;4183240;28;20207;-49
2022/12/29 09:05:38;;;;;;;2.10;1.90;;;;;;;10.97;100.00;97854.09;4203993;28;21156;-49
2022/12/29 09:07:40;;;;;;;2.95;1.83;;;;;;;11.00;100.00;97844.53;4218867;28;20249;-49
2022/12/29 09:09:41;;;;;;;3.30;2.10;;;;;;;11.03;100.00;97844.81;4189572;28;21052;-49
2022/12/29 09:11:43;;;;;;;2.55;1.90;;;;;;;10.98;100.00;97853.00;4204104;28;20280;-50
2022/12/29 09:13:46;;;;;;;2.78;1.83;;;;;;;10.96;100.00;97866.16;4215084;27;20232;-49
2022/12/29 09:15:47;;;;;;;3.53;2.05;;;;;;;10.83;100.00;97858.44;4217185;28;20249;-50
2022/12/29 09:17:49;;;;;;;1.67;1.50;;;;;;;10.75;100.00;97873.75;4203364;28;20327;-49
2022/12/29 09:19:51;;;;;;;1.63;1.52;;;;;;;10.71;100.00;97867.13;4201646;28;20342;-49
2022/12/29 09:21:53;;;;;;;1.42;1.33;;;;;;;10.75;100.00;97868.25;4204279;28;20643;-50
2022/12/29 09:23:54;;;;;;;3.22;2.28;;;;;;;10.77;100.00;97872.38;4197170;28;20256;-50
2022/12/29 09:25:56;;;;;;;2.03;1.70;;;;;;;10.83;100.00;97879.53;4205388;28;20194;-49
2022/12/29 09:27:58;;;;;;;1.92;1.83;;;;;;;10.84;100.00;97883.91;4199011;28;20233;-49
2022/12/29 09:30:00;;;;;;;1.50;1.40;;;;;;;10.90;100.00;97894.59;4214491;27;20234;-49
2022/12/29 09:32:01;;;;;;;4.30;1.48;;;;;;;10.90;100.00;97878.16;4215681;27;20282;-49
2022/12/29 09:34:08;;;;;;;1.70;1.60;;;;;;;10.96;100.00;97885.31;4217490;27;20214;-51
2022/12/29 09:36:09;;;;;;;1.73;1.63;;;;;;;11.01;100.00;97885.34;4183674;28;20208;-50
2022/12/29 09:38:12;;;;;;;18.35;2.08;;;;;;;11.03;100.00;97885.09;4198334;28;20211;-49
2022/12/29 09:40:24;;;;;;;2.63;1.48;;;;;;;11.03;100.00;97894.09;4186452;28;20224;-49
2022/12/29 09:42:39;;;;;;;2.47;1.70;;;;;;;11.08;100.00;97888.66;4203238;28;20226;-50
2022/12/29 09:44:51;;;;;;;2.40;1.65;;;;;;;11.17;100.00;97887.03;4207706;28;20290;-50
2022/12/29 09:46:53;;;;;;;2.25;1.73;;;;;;;11.18;100.00;97894.16;4215673;28;20259;-49
2022/12/29 09:49:18;;;;;;;1.50;1.40;;;;;;;11.19;100.00;97897.72;4189485;28;20234;-51
2022/12/29 09:51:22;;;;;;;1.88;1.42;;;;;;;11.18;100.00;97896.88;4205260;28;20687;-49
2022/12/29 09:53:33;;;;;;;4.10;1.60;;;;;;;11.19;100.00;97911.41;4216999;28;20297;-49
2022/12/29 09:55:38;;;;;;;2.03;1.10;;;;;;;11.23;100.00;97909.78;4215365;28;20292;-50
2022/12/29 09:57:54;;;;;;;3.15;1.88;;;;;;;11.25;100.00;97905.66;4201973;28;20242;-49
2022/12/29 10:00:00;;;;;;;3.10;1.80;;;;;;;11.23;100.00;97899.66;4201004;28;20267;-49
2022/12/29 10:02:31;;;;;;;1.70;1.55;;;;;;;11.16;100.00;97907.28;4216568;28;20233;-49
2022/12/29 10:04:34;;;;;;;1.77;1.67;;;;;;;11.13;100.00;97899.63;4218367;28;20559;-49
2022/12/29 10:06:56;;;;;;;3.08;1.60;;;;;;;11.11;100.00;97896.31;4184909;28;20298;-50
2022/12/29 10:09:33;;;;;;;2.30;1.85;;;;;;;11.15;100.00;97897.44;4215661;28;20229;-49
2022/12/29 10:11:46;;;;;;;1.85;1.60;;;;;;;11.11;100.00;97895.50;4194687;28;20310;-49
2022/12/29 10:14:13;;;;;;;2.35;1.60;;;;;;;11.07;100.00;97899.88;4198198;28;20256;-49
2022/12/29 10:16:34;;;;;;;6.43;2.40;;;;;;;11.03;100.00;97910.53;4220265;27;20670;-50